createdAt,value
2023-11-18T00:01:33.466Z,99005.78
2023-11-18T00:04:00.267Z,99015.72
2023-11-18T00:06:26.790Z,99018.66
2023-11-18T00:08:53.290Z,99013.28
2023-11-18T00:11:19.775Z,99013.53
2023-11-18T00:13:46.280Z,99010.63
2023-11-18T00:16:12.803Z,99014.53
2023-11-18T00:18:43.214Z,99014.06
2023-11-18T00:21:09.823Z,99014.75
2023-11-18T00:23:36.370Z,99018.91
2023-11-18T00:26:03.610Z,99022.19
2023-11-18T00:28:30.384Z,99024.41
2023-11-18T00:30:56.903Z,99030.66
2023-11-18T00:33:23.557Z,99034.03
2023-11-18T00:35:50.216Z,99041.09
2023-11-18T00:38:16.667Z,99028.59
2023-11-18T00:40:43.136Z,99038.53
2023-11-18T00:43:09.962Z,99033.00
2023-11-18T00:45:36.424Z,99044.78
2023-11-18T00:48:02.902Z,99033.41
2023-11-18T00:50:29.481Z,99027.66
2023-11-18T00:52:56.038Z,99029.00
2023-11-18T00:55:22.682Z,99024.50
2023-11-18T00:57:49.157Z,99025.38
2023-11-18T01:00:16.542Z,99016.94
2023-11-18T01:02:44.437Z,99019.78
2023-11-18T01:05:11.045Z,99013.78
2023-11-18T01:07:38.891Z,99015.84
2023-11-18T01:10:06.876Z,99006.38
2023-11-18T01:12:33.543Z,99003.22
2023-11-18T01:15:00.382Z,99013.88
2023-11-18T01:17:26.913Z,98992.22
2023-11-18T01:19:53.428Z,99009.81
2023-11-18T01:22:20.457Z,98998.06
2023-11-18T01:24:46.939Z,99007.28
2023-11-18T01:27:14.297Z,99007.94
2023-11-18T01:29:40.844Z,99016.84
2023-11-18T01:32:07.780Z,99022.69
2023-11-18T01:34:34.278Z,99017.22
2023-11-18T01:37:00.914Z,99022.19
2023-11-18T01:39:27.360Z,99028.44
2023-11-18T01:41:54.003Z,99031.94
2023-11-18T01:44:20.452Z,99031.47
2023-11-18T01:46:47.239Z,99029.06
2023-11-18T01:49:15.627Z,99026.75
2023-11-18T01:51:44.867Z,99032.56
2023-11-18T01:54:13.492Z,99033.88
2023-11-18T01:56:40.142Z,99034.00
2023-11-18T01:59:07.071Z,99041.44
2023-11-18T02:01:34.341Z,99037.03
2023-11-18T02:04:01.129Z,99046.00
2023-11-18T02:06:28.376Z,99032.38
2023-11-18T02:08:55.047Z,99033.41
2023-11-18T02:11:37.062Z,99036.50
2023-11-18T02:14:05.159Z,99032.75
2023-11-18T02:16:33.081Z,99030.06
2023-11-18T02:19:00.968Z,99038.75
2023-11-18T02:21:28.148Z,99026.38
2023-11-18T02:23:54.608Z,99021.16
2023-11-18T02:26:24.811Z,99007.78
2023-11-18T02:28:51.610Z,99022.31
2023-11-18T02:31:25.727Z,99021.00
2023-11-18T02:34:06.626Z,99021.47
2023-11-18T02:36:37.591Z,99020.22
2023-11-18T02:39:06.945Z,99020.03
2023-11-18T02:41:34.813Z,99012.00
2023-11-18T02:44:03.482Z,99011.16
2023-11-18T02:46:30.311Z,99014.28
2023-11-18T02:48:56.789Z,99014.28
2023-11-18T02:51:24.214Z,99010.28
2023-11-18T02:53:50.691Z,99004.56
2023-11-18T02:56:17.154Z,99006.09
2023-11-18T02:58:43.832Z,99011.09
2023-11-18T03:01:10.320Z,99007.38
2023-11-18T03:03:37.097Z,99005.94
2023-11-18T03:06:03.820Z,99000.59
2023-11-18T03:08:30.287Z,99007.63
2023-11-18T03:10:57.330Z,99015.50
2023-11-18T03:13:23.889Z,99011.66
2023-11-18T03:15:52.070Z,99016.41
2023-11-18T03:18:18.649Z,99000.13
2023-11-18T03:20:45.161Z,99003.31
2023-11-18T03:23:11.617Z,99012.22
2023-11-18T03:25:38.186Z,99016.34
2023-11-18T03:28:04.730Z,99012.03
2023-11-18T03:30:31.235Z,99001.91
2023-11-18T03:32:57.760Z,99004.38
2023-11-18T03:35:24.429Z,98999.50
2023-11-18T03:37:51.362Z,98996.94
2023-11-18T03:40:17.821Z,98990.28
2023-11-18T03:42:44.740Z,98993.06
2023-11-18T03:45:11.625Z,98994.88
2023-11-18T03:47:38.902Z,98985.16
2023-11-18T03:50:05.903Z,98986.50
2023-11-18T03:52:32.525Z,98981.03
2023-11-18T03:54:59.044Z,98976.56
2023-11-18T03:57:25.488Z,98978.16
2023-11-18T03:59:51.969Z,98972.03
2023-11-18T04:02:18.421Z,98969.22
2023-11-18T04:04:45.886Z,98969.69
2023-11-18T04:07:12.416Z,98967.91
2023-11-18T04:09:38.924Z,98973.56
2023-11-18T04:12:05.809Z,98993.63
2023-11-18T04:14:32.255Z,99010.38
2023-11-18T04:16:58.817Z,98997.41
2023-11-18T04:19:25.499Z,99005.34
2023-11-18T04:21:51.948Z,99004.91
2023-11-18T04:24:18.431Z,99006.22
2023-11-18T04:26:44.908Z,99004.44
2023-11-18T04:29:11.521Z,99010.75
2023-11-18T04:31:38.276Z,99005.34
2023-11-18T04:34:04.943Z,99003.22
2023-11-18T04:36:31.497Z,98997.34
2023-11-18T04:39:01.224Z,98985.00
2023-11-18T04:41:27.855Z,98979.16
2023-11-18T04:43:54.361Z,98977.81
2023-11-18T04:46:20.889Z,98986.47
2023-11-18T04:48:48.467Z,98980.34
2023-11-18T04:51:15.004Z,98973.81
2023-11-18T04:53:41.501Z,98969.53
2023-11-18T04:56:08.455Z,98964.47
2023-11-18T04:58:34.903Z,98983.78
2023-11-18T05:01:01.393Z,98970.94
2023-11-18T05:03:27.948Z,98961.59
2023-11-18T05:05:57.745Z,98956.63
2023-11-18T05:08:25.090Z,98959.78
2023-11-18T05:10:51.924Z,98951.59
2023-11-18T05:13:19.279Z,98943.03
2023-11-18T05:15:46.662Z,98946.28
2023-11-18T05:18:15.122Z,98948.84
2023-11-18T05:20:42.360Z,98933.56
2023-11-18T05:23:09.524Z,98943.03
2023-11-18T05:25:35.996Z,98933.06
2023-11-18T05:28:02.504Z,98927.38
2023-11-18T05:30:28.989Z,98935.78
2023-11-18T05:32:56.377Z,98929.63
2023-11-18T05:35:22.876Z,98935.13
2023-11-18T05:37:49.342Z,98939.75
2023-11-18T05:40:15.884Z,98926.63
2023-11-18T05:42:42.386Z,98927.13
2023-11-18T05:45:09.240Z,98912.72
2023-11-18T05:47:35.770Z,98902.69
2023-11-18T05:50:02.366Z,98915.09
2023-11-18T05:52:28.879Z,98912.44
2023-11-18T05:54:55.719Z,98925.19
2023-11-18T05:57:22.194Z,98915.59
2023-11-18T05:59:49.046Z,98909.03
2023-11-18T06:02:15.638Z,98906.38
2023-11-18T06:04:42.123Z,98896.91
2023-11-18T06:07:08.680Z,98887.50
2023-11-18T06:09:35.580Z,98891.28
2023-11-18T06:12:02.048Z,98880.88
2023-11-18T06:14:28.777Z,98879.06
2023-11-18T06:16:55.362Z,98891.31
2023-11-18T06:19:21.921Z,98897.19
2023-11-18T06:21:48.416Z,98896.97
2023-11-18T06:24:14.896Z,98899.59
2023-11-18T06:26:41.474Z,98902.75
2023-11-18T06:29:08.065Z,98904.25
2023-11-18T06:31:34.595Z,98890.50
2023-11-18T06:34:01.111Z,98878.88
2023-11-18T06:36:27.743Z,98885.63
2023-11-18T06:38:55.087Z,98886.09
2023-11-18T06:41:23.443Z,98888.03
2023-11-18T06:43:50.837Z,98883.28
2023-11-18T06:46:17.281Z,98891.13
2023-11-18T06:48:43.832Z,98883.00
2023-11-18T06:51:10.513Z,98880.63
2023-11-18T06:53:36.974Z,98883.25
2023-11-18T06:56:03.692Z,98879.19
2023-11-18T06:58:30.607Z,98881.59
2023-11-18T07:00:57.079Z,98866.78
2023-11-18T07:03:23.766Z,98880.09
2023-11-18T07:05:50.436Z,98885.72
2023-11-18T07:08:16.991Z,98908.75
2023-11-18T07:10:43.556Z,98904.38
2023-11-18T07:13:10.058Z,98893.06
2023-11-18T07:15:36.536Z,98901.06
2023-11-18T07:18:03.338Z,98900.03
2023-11-18T07:20:30.123Z,98907.25
2023-11-18T07:22:56.638Z,98904.88
2023-11-18T07:25:23.092Z,98901.72
2023-11-18T07:27:49.616Z,98909.19
2023-11-18T07:30:16.562Z,98920.16
2023-11-18T07:32:43.057Z,98914.13
2023-11-18T07:35:09.631Z,98923.84
2023-11-18T07:37:37.077Z,98929.66
2023-11-18T07:40:05.690Z,98921.72
2023-11-18T07:42:32.868Z,98919.47
2023-11-18T07:44:59.297Z,98919.84
2023-11-18T07:47:25.764Z,98928.38
2023-11-18T07:49:55.077Z,98920.84
2023-11-18T07:52:21.601Z,98926.84
2023-11-18T07:54:49.174Z,98927.44
2023-11-18T07:57:16.702Z,98915.41
2023-11-18T07:59:43.143Z,98897.22
2023-11-18T08:02:09.659Z,98899.00
2023-11-18T08:04:36.138Z,98897.69
2023-11-18T08:07:02.759Z,98888.22
2023-11-18T08:09:29.451Z,98880.91
2023-11-18T08:11:56.923Z,98881.88
2023-11-18T08:14:23.735Z,98880.19
2023-11-18T08:16:50.410Z,98888.13
2023-11-18T08:19:17.055Z,98877.13
2023-11-18T08:21:43.511Z,98882.38
2023-11-18T08:24:10.255Z,98871.00
2023-11-18T08:26:36.915Z,98886.41
2023-11-18T08:29:03.577Z,98878.75
2023-11-18T08:31:30.199Z,98889.84
2023-11-18T08:33:56.638Z,98883.72
2023-11-18T08:36:24.025Z,98892.09
2023-11-18T08:38:50.491Z,98891.56
2023-11-18T08:41:17.023Z,98883.00
2023-11-18T08:43:43.537Z,98892.91
2023-11-18T08:46:12.420Z,98895.78
2023-11-18T08:48:38.872Z,98893.47
2023-11-18T08:51:05.850Z,98899.28
2023-11-18T08:53:32.258Z,98901.53
2023-11-18T08:55:58.778Z,98896.81
2023-11-18T08:58:27.336Z,98892.66
2023-11-18T09:00:57.490Z,98895.22
2023-11-18T09:03:25.302Z,98891.44
2023-11-18T09:05:56.001Z,98906.88
2023-11-18T09:08:22.438Z,98891.47
2023-11-18T09:10:48.897Z,98885.63
2023-11-18T09:13:15.308Z,98884.91
2023-11-18T09:15:41.779Z,98887.38
2023-11-18T09:18:08.406Z,98884.63
2023-11-18T09:20:34.908Z,98888.22
2023-11-18T09:23:03.827Z,98894.53
2023-11-18T09:25:30.637Z,98896.31
2023-11-18T09:27:57.097Z,98889.28
2023-11-18T09:30:23.592Z,98887.47
2023-11-18T09:32:50.164Z,98888.94
2023-11-18T09:35:16.668Z,98888.50
2023-11-18T09:37:43.206Z,98875.75
2023-11-18T09:40:14.912Z,98883.81
2023-11-18T09:42:41.960Z,98882.44
2023-11-18T09:45:08.712Z,98877.75
2023-11-18T09:47:42.912Z,98886.78
2023-11-18T09:50:11.879Z,98885.09
2023-11-18T09:52:48.181Z,98885.19
2023-11-18T09:55:34.077Z,98888.38
2023-11-18T09:58:05.318Z,98887.84
2023-11-18T10:00:32.126Z,98877.72
2023-11-18T10:02:59.027Z,98875.47
2023-11-18T10:05:28.720Z,98868.41
2023-11-18T10:07:55.604Z,98867.59
2023-11-18T10:10:22.385Z,98858.81
2023-11-18T10:12:51.083Z,98867.03
2023-11-18T10:15:19.058Z,98848.06
2023-11-18T10:17:46.626Z,98852.63
2023-11-18T10:20:13.181Z,98856.94
2023-11-18T10:22:39.636Z,98854.06
2023-11-18T10:25:06.407Z,98847.66
2023-11-18T10:27:33.160Z,98841.97
2023-11-18T10:30:04.134Z,98842.03
2023-11-18T10:32:31.302Z,98842.19
2023-11-18T10:34:58.522Z,98831.22
2023-11-18T10:37:28.901Z,98825.47
2023-11-18T10:39:55.350Z,98827.06
2023-11-18T10:42:22.267Z,98831.22
2023-11-18T10:44:58.874Z,98811.16
2023-11-18T10:47:29.278Z,98809.59
2023-11-18T10:49:56.239Z,98806.78
2023-11-18T10:52:24.108Z,98796.09
2023-11-18T10:54:54.084Z,98794.03
2023-11-18T10:57:21.233Z,98790.66
2023-11-18T11:00:05.606Z,98789.56
2023-11-18T11:02:32.293Z,98781.34
2023-11-18T11:04:58.748Z,98781.34
2023-11-18T11:07:27.159Z,98766.97
2023-11-18T11:09:53.609Z,98766.69
2023-11-18T11:12:20.726Z,98757.03
2023-11-18T11:15:00.336Z,98751.38
2023-11-18T11:17:28.914Z,98739.63
2023-11-18T11:20:03.865Z,98727.69
2023-11-18T11:22:39.609Z,98729.47
2023-11-18T11:25:34.113Z,98722.38
2023-11-18T11:28:11.686Z,98730.94
2023-11-18T11:30:56.203Z,98727.19
2023-11-18T11:33:30.181Z,98727.72
2023-11-18T11:35:57.700Z,98724.00
2023-11-18T11:38:25.823Z,98732.66
2023-11-18T11:40:52.824Z,98733.75
2023-11-18T11:43:19.313Z,98728.66
2023-11-18T11:45:46.182Z,98730.94
2023-11-18T11:48:13.093Z,98715.38
2023-11-18T11:50:54.568Z,98711.84
2023-11-18T11:53:27.882Z,98706.69
2023-11-18T11:55:55.875Z,98700.91
2023-11-18T11:58:32.461Z,98696.22
2023-11-18T12:01:02.902Z,98696.59
2023-11-18T12:03:32.091Z,98696.91
2023-11-18T12:05:58.729Z,98704.44
2023-11-18T12:08:25.236Z,98702.28
2023-11-18T12:10:54.614Z,98705.59
2023-11-18T12:13:21.377Z,98699.03
2023-11-18T12:15:56.203Z,98689.91
2023-11-18T12:18:23.198Z,98682.41
2023-11-18T12:20:49.861Z,98662.84
2023-11-18T12:23:16.978Z,98667.44
2023-11-18T12:25:46.850Z,98661.00
2023-11-18T12:28:17.844Z,98648.97
2023-11-18T12:30:45.765Z,98639.56
2023-11-18T12:33:12.368Z,98629.50
2023-11-18T12:35:47.053Z,98629.44
2023-11-18T12:38:51.231Z,98616.50
2023-11-18T12:41:37.496Z,98626.13
2023-11-18T12:44:22.119Z,98612.84
2023-11-18T12:46:53.929Z,98615.00
2023-11-18T12:49:23.720Z,98608.34
2023-11-18T12:51:55.114Z,98599.69
2023-11-18T12:54:25.124Z,98594.56
2023-11-18T12:56:52.697Z,98582.56
2023-11-18T12:59:19.298Z,98573.44
2023-11-18T13:01:48.196Z,98567.91
2023-11-18T13:04:15.336Z,98570.84
2023-11-18T13:06:41.999Z,98567.16
2023-11-18T13:09:08.866Z,98549.09
2023-11-18T13:11:35.356Z,98551.75
2023-11-18T13:14:02.705Z,98542.56
2023-11-18T13:16:29.497Z,98550.53
2023-11-18T13:18:56.404Z,98537.44
2023-11-18T13:21:22.999Z,98558.66
2023-11-18T13:23:52.502Z,98559.72
2023-11-18T13:26:20.641Z,98553.66
2023-11-18T13:28:50.021Z,98543.41
2023-11-18T13:31:22.958Z,98543.63
2023-11-18T13:33:59.538Z,98527.28
2023-11-18T13:36:33.342Z,98517.91
2023-11-18T13:38:59.871Z,98512.56
2023-11-18T13:41:32.566Z,98502.72
2023-11-18T13:44:00.531Z,98482.94
2023-11-18T13:46:28.974Z,98467.00
2023-11-18T13:48:55.476Z,98475.59
2023-11-18T13:51:22.498Z,98482.66
2023-11-18T13:53:49.043Z,98480.09
2023-11-18T13:56:15.829Z,98456.19
2023-11-18T13:58:45.462Z,98449.09
2023-11-18T14:01:12.543Z,98448.47
2023-11-18T14:03:41.028Z,98435.97
2023-11-18T14:06:08.737Z,98436.44
2023-11-18T14:08:35.535Z,98434.94
2023-11-18T14:11:03.697Z,98413.63
2023-11-18T14:13:31.432Z,98429.13
2023-11-18T14:16:00.946Z,98432.47
2023-11-18T14:18:27.861Z,98422.41
2023-11-18T14:20:54.923Z,98421.19
2023-11-18T14:23:21.782Z,98421.47
2023-11-18T14:25:48.872Z,98412.13
2023-11-18T14:28:15.999Z,98412.16
2023-11-18T14:30:42.491Z,98382.53
2023-11-18T14:33:09.216Z,98368.41
2023-11-18T14:35:36.054Z,98361.03
2023-11-18T14:38:03.501Z,98355.09
2023-11-18T14:40:30.219Z,98342.38
2023-11-18T14:42:56.806Z,98361.16
2023-11-18T14:45:23.705Z,98359.16
2023-11-18T14:47:50.325Z,98334.72
2023-11-18T14:50:23.899Z,98322.25
2023-11-18T14:52:51.752Z,98334.19
2023-11-18T14:55:18.943Z,98334.84
2023-11-18T14:57:45.954Z,98335.09
2023-11-18T15:00:13.511Z,98321.94
2023-11-18T15:02:40.220Z,98304.81
2023-11-18T15:05:07.117Z,98313.50
2023-11-18T15:07:33.688Z,98320.34
2023-11-18T15:10:00.212Z,98295.25
2023-11-18T15:12:26.829Z,98286.78
2023-11-18T15:14:53.345Z,98289.09
2023-11-18T15:17:19.774Z,98301.50
2023-11-18T15:19:46.205Z,98291.34
2023-11-18T15:22:12.715Z,98286.78
2023-11-18T15:24:39.209Z,98278.00
2023-11-18T15:27:05.732Z,98281.44
2023-11-18T15:29:32.363Z,98270.31
2023-11-18T15:31:58.982Z,98272.28
2023-11-18T15:34:25.480Z,98260.09
2023-11-18T15:36:52.538Z,98252.97
2023-11-18T15:39:19.033Z,98240.84
2023-11-18T15:41:45.455Z,98231.88
2023-11-18T15:44:11.932Z,98220.50
2023-11-18T15:46:38.832Z,98180.94
2023-11-18T15:49:05.334Z,98187.13
2023-11-18T15:51:31.747Z,98188.03
2023-11-18T15:53:58.249Z,98186.53
2023-11-18T15:56:24.689Z,98173.16
2023-11-18T15:58:51.779Z,98172.31
2023-11-18T16:01:18.308Z,98190.34
2023-11-18T16:03:44.857Z,98160.28
2023-11-18T16:06:11.311Z,98180.50
2023-11-18T16:08:38.262Z,98184.88
2023-11-18T16:11:05.353Z,98166.16
2023-11-18T16:13:31.865Z,98157.50
2023-11-18T16:15:58.346Z,98166.19
2023-11-18T16:18:24.866Z,98153.19
2023-11-18T16:20:51.477Z,98149.28
2023-11-18T16:23:18.047Z,98161.41
2023-11-18T16:25:44.619Z,98169.22
2023-11-18T16:28:11.260Z,98159.78
2023-11-18T16:30:37.743Z,98146.06
2023-11-18T16:33:04.241Z,98146.53
2023-11-18T16:35:31.299Z,98142.56
2023-11-18T16:37:58.298Z,98127.72
2023-11-18T16:40:25.320Z,98141.81
2023-11-18T16:42:53.644Z,98130.91
2023-11-18T16:45:20.340Z,98136.44
2023-11-18T16:47:46.959Z,98134.03
2023-11-18T16:50:15.181Z,98138.72
2023-11-18T16:52:41.825Z,98159.16
2023-11-18T16:55:10.214Z,98152.22
2023-11-18T16:57:37.998Z,98140.84
2023-11-18T17:00:12.303Z,98130.09
2023-11-18T17:02:38.885Z,98129.38
2023-11-18T17:05:05.714Z,98118.75
2023-11-18T17:07:32.188Z,98124.59
2023-11-18T17:09:58.631Z,98117.19
2023-11-18T17:12:25.139Z,98102.25
2023-11-18T17:14:51.610Z,98108.22
2023-11-18T17:17:18.129Z,98115.28
2023-11-18T17:19:44.672Z,98120.03
2023-11-18T17:22:11.229Z,98111.09
2023-11-18T17:24:40.615Z,98123.53
2023-11-18T17:27:07.137Z,98113.38
2023-11-18T17:29:34.340Z,98110.59
2023-11-18T17:32:00.837Z,98109.81
2023-11-18T17:34:27.347Z,98098.88
2023-11-18T17:36:56.395Z,98100.91
2023-11-18T17:39:23.048Z,98102.78
2023-11-18T17:41:49.701Z,98098.09
2023-11-18T17:44:16.216Z,98093.38
2023-11-18T17:46:42.697Z,98084.38
2023-11-18T17:49:09.200Z,98092.22
2023-11-18T17:51:35.831Z,98080.84
2023-11-18T17:54:02.404Z,98074.59
2023-11-18T17:56:29.002Z,98067.53
2023-11-18T17:58:55.482Z,98071.50
2023-11-18T18:01:24.523Z,98062.13
2023-11-18T18:03:51.127Z,98050.38
2023-11-18T18:06:17.650Z,98060.94
2023-11-18T18:08:44.095Z,98062.13
2023-11-18T18:11:10.576Z,98055.44
2023-11-18T18:13:37.072Z,98068.78
2023-11-18T18:16:04.035Z,98055.06
2023-11-18T18:18:30.869Z,98044.09
2023-11-18T18:20:57.336Z,98058.19
2023-11-18T18:23:23.808Z,98064.47
2023-11-18T18:25:50.605Z,98056.66
2023-11-18T18:28:17.049Z,98061.41
2023-11-18T18:30:43.668Z,98055.06
2023-11-18T18:33:10.194Z,98054.28
2023-11-18T18:35:36.790Z,98042.56
2023-11-18T18:38:03.637Z,98041.38
2023-11-18T18:40:32.603Z,98048.84
2023-11-18T18:43:00.188Z,98040.25
2023-11-18T18:45:26.659Z,98039.81
2023-11-18T18:47:53.565Z,98050.78
2023-11-18T18:50:20.835Z,98048.06
2023-11-18T18:52:47.339Z,98051.19
2023-11-18T18:55:13.950Z,98062.16
2023-11-18T18:57:40.872Z,98065.31
2023-11-18T19:00:08.180Z,98031.59
2023-11-18T19:02:34.838Z,98019.03
2023-11-18T19:05:01.603Z,98019.44
2023-11-18T19:07:28.052Z,98012.00
2023-11-18T19:09:54.540Z,98019.44
2023-11-18T19:12:21.013Z,98010.44
2023-11-18T19:14:47.472Z,98013.56
2023-11-18T19:17:13.944Z,98014.34
2023-11-18T19:19:40.437Z,97997.88
2023-11-18T19:22:06.962Z,98006.53
2023-11-18T19:24:33.657Z,98016.72
2023-11-18T19:27:00.255Z,98025.34
2023-11-18T19:29:27.192Z,98022.59
2023-11-18T19:31:53.686Z,98015.94
2023-11-18T19:34:20.294Z,98024.16
2023-11-18T19:36:46.767Z,98021.41
2023-11-18T19:39:13.541Z,98020.66
2023-11-18T19:41:40.055Z,98024.16
2023-11-18T19:44:06.728Z,98020.66
2023-11-18T19:46:33.233Z,98021.41
2023-11-18T19:49:00.467Z,98009.25
2023-11-18T19:51:26.978Z,98006.50
2023-11-18T19:53:53.539Z,98003.75
2023-11-18T19:56:20.110Z,98012.00
2023-11-18T19:58:46.641Z,98011.19
2023-11-18T20:01:19.285Z,98009.63
2023-11-18T20:03:48.938Z,98018.22
2023-11-18T20:06:15.475Z,98000.16
2023-11-18T20:08:42.745Z,98002.13
2023-11-18T20:11:09.419Z,97997.78
2023-11-18T20:13:36.421Z,97993.09
2023-11-18T20:16:03.069Z,97976.19
2023-11-18T20:18:29.588Z,97978.88
2023-11-18T20:20:56.085Z,97986.75
2023-11-18T20:23:22.684Z,97971.84
2023-11-18T20:25:49.466Z,97982.78
2023-11-18T20:28:15.954Z,97980.03
2023-11-18T20:30:42.511Z,97978.41
2023-11-18T20:33:09.011Z,97972.53
2023-11-18T20:35:35.751Z,97981.94
2023-11-18T20:38:02.452Z,97979.47
2023-11-18T20:40:29.732Z,97971.56
2023-11-18T20:42:56.221Z,97957.44
2023-11-18T20:45:22.809Z,97953.94
2023-11-18T20:47:49.724Z,97961.41
2023-11-18T20:50:16.558Z,97951.13
2023-11-18T20:52:43.386Z,97946.03
2023-11-18T20:55:10.540Z,97937.03
2023-11-18T20:57:37.815Z,97941.31
2023-11-18T21:00:09.087Z,97943.28
2023-11-18T21:02:43.328Z,97937.31
2023-11-18T21:05:12.040Z,97947.03
2023-11-18T21:07:38.651Z,97944.34
2023-11-18T21:10:05.636Z,97924.75
2023-11-18T21:12:32.262Z,97923.53
2023-11-18T21:14:58.774Z,97923.16
2023-11-18T21:17:25.829Z,97911.72
2023-11-18T21:19:53.341Z,97921.09
2023-11-18T21:22:20.705Z,97927.38
2023-11-18T21:24:47.542Z,97913.22
2023-11-18T21:27:14.004Z,97915.56
2023-11-18T21:29:40.458Z,97911.22
2023-11-18T21:32:07.344Z,97896.31
2023-11-18T21:34:33.976Z,97902.94
2023-11-18T21:37:00.419Z,97889.22
2023-11-18T21:39:27.331Z,97897.81
2023-11-18T21:41:53.832Z,97891.03
2023-11-18T21:44:20.364Z,97877.66
2023-11-18T21:46:47.328Z,97873.66
2023-11-18T21:49:13.792Z,97883.16
2023-11-18T21:51:40.292Z,97875.63
2023-11-18T21:54:06.876Z,97866.63
2023-11-18T21:56:36.339Z,97857.13
2023-11-18T21:59:03.188Z,97825.06
2023-11-18T22:01:30.900Z,97865.97
2023-11-18T22:03:57.556Z,97856.88
2023-11-18T22:06:24.506Z,97861.91
2023-11-18T22:08:51.763Z,97862.03
2023-11-18T22:11:18.278Z,97865.91
2023-11-18T22:13:44.996Z,97841.53
2023-11-18T22:16:11.511Z,97837.25
2023-11-18T22:18:41.315Z,97834.09
2023-11-18T22:21:20.418Z,97829.69
2023-11-18T22:23:47.088Z,97821.91
2023-11-18T22:26:13.582Z,97823.41
2023-11-18T22:28:40.236Z,97830.38
2023-11-18T22:31:06.895Z,97834.00
2023-11-18T22:33:33.609Z,97836.41
2023-11-18T22:36:00.280Z,97834.31
2023-11-18T22:38:26.842Z,97850.34
2023-11-18T22:40:56.039Z,97839.44
2023-11-18T22:43:22.526Z,97856.72
2023-11-18T22:45:49.184Z,97857.47
2023-11-18T22:48:16.094Z,97857.72
2023-11-18T22:50:42.839Z,97858.97
2023-11-18T22:53:10.553Z,97860.84
2023-11-18T22:55:37.221Z,97868.41
2023-11-18T22:58:03.802Z,97869.53
2023-11-18T23:00:30.273Z,97877.47
2023-11-18T23:02:56.967Z,97862.91
2023-11-18T23:05:23.715Z,97852.28
2023-11-18T23:07:50.192Z,97852.94
2023-11-18T23:10:17.312Z,97863.19
2023-11-18T23:12:43.941Z,97846.31
2023-11-18T23:15:10.565Z,97850.59
2023-11-18T23:17:37.235Z,97840.34
2023-11-18T23:20:04.222Z,97827.81
2023-11-18T23:22:32.057Z,97844.31
2023-11-18T23:24:58.681Z,97836.06
2023-11-18T23:27:25.210Z,97825.41
2023-11-18T23:29:51.775Z,97823.81
2023-11-18T23:32:18.224Z,97827.75
2023-11-18T23:34:44.714Z,97823.72
2023-11-18T23:37:11.236Z,97810.75
2023-11-18T23:39:37.947Z,97819.78
2023-11-18T23:42:05.508Z,97813.84
2023-11-18T23:44:34.336Z,97817.34
2023-11-18T23:47:01.026Z,97817.28
2023-11-18T23:49:27.921Z,97834.53
2023-11-18T23:51:55.803Z,97834.63
2023-11-18T23:54:22.619Z,97831.84
2023-11-18T23:56:49.092Z,97830.13
2023-11-18T23:59:15.568Z,97835.34
